Latest Weather Observations for Longerenong

IDV60801

Issued at 6:32 pm EST Friday 26 August 2016 (issued every 30 minutes, with the page automatically refreshed every 10 minutes)

About weather observations | Map of weather stations | Latest weather observations for VIC | Other Formats
Station Details ID: 079028 Name: LONGERENONG Lat: -36.67 Lon: 142.30 Height: 133.0 m
Data from the previous 72 hours. | See also: Recent months at Longerenong
Date/Time
EST
Temp
°C
App
Temp
°C
Dew
Point
°C
Rel
Hum
%
Delta-T
°C
Wind Press
QNH
hPa
Press
MSL
hPa
Rain since
9am
mm
Dir  Spd
km/h
Gust
km/h
Spd
kts
Gust
kts
26/06:30pm 10.1 9.1 5.5 73 2.1 CALM 0 0 0 0 - - 0.0
26/06:00pm 10.5 9.1 5.5 71 2.3 WSW 2 2 1 1 - - 0.0
26/05:30pm 10.7 8.8 4.8 67 2.7 SW 4 4 2 2 - - 0.0
26/05:00pm 11.3 8.3 4.1 61 3.2 WSW 9 11 5 6 - - 0.0
26/04:30pm 11.8 8.7 3.8 58 3.6 W 9 13 5 7 - - 0.0
26/04:00pm 11.6 8.5 3.6 58 3.6 W 9 13 5 7 - - 0.0
26/03:30pm 11.9 7.6 3.4 56 3.8 WSW 15 20 8 11 - - 0.0
26/03:00pm 12.7 8.3 4.7 58 3.7 WSW 17 26 9 14 - - 0.0
26/02:30pm 12.3 7.7 3.8 56 3.8 WSW 17 22 9 12 - - 0.0
26/02:00pm 11.9 7.2 3.4 56 3.8 W 17 22 9 12 - - 0.0
26/01:30pm 11.4 8.0 3.9 60 3.4 W 11 15 6 8 - - 0.0
26/01:00pm 11.6 8.3 4.6 62 3.2 WSW 11 20 6 11 - - 0.0
26/12:30pm 11.1 7.4 4.3 63 3.1 WSW 13 22 7 12 - - 0.0
26/12:00pm 10.7 6.0 3.0 59 3.4 WSW 17 24 9 13 - - 0.0
26/11:30am 10.6 7.0 3.2 60 3.2 W 11 17 6 9 - - 0.0
26/11:00am 9.5 7.7 5.3 75 1.9 W 4 6 2 3 - - 0.0
26/10:30am 8.2 6.9 6.0 86 1.0 WNW 2 6 1 3 - - 0.0
26/10:00am 6.6 4.8 5.6 93 0.4 W 4 6 2 3 - - 0.0
26/09:30am 5.4 3.5 4.8 96 0.3 WSW 4 6 2 3 - - 0.0
26/09:00am 4.8 2.4 4.5 98 0.1 WSW 6 7 3 4 - - 0.2
26/08:30am 4.2 2.1 3.9 98 0.1 WSW 4 6 2 3 - - 0.2
26/08:00am 3.3 1.0 3.0 98 0.1 WSW 4 7 2 4 - - 0.2
26/07:30am 1.1 -1.5 0.8 98 0.1 W 4 6 2 3 - - 0.0
26/07:00am 0.9 -1.8 0.5 97 0.1 W 4 6 2 3 - - 0.0
26/06:30am 1.5 -1.5 1.1 97 0.2 WSW 6 6 3 3 - - 0.0
26/06:00am 1.6 -1.9 1.2 97 0.2 WSW 9 9 5 5 - - 0.0
26/05:30am 2.0 -2.2 1.6 97 0.2 WSW 13 17 7 9 - - 0.0
26/05:00am 0.3 -2.9 -0.3 96 0.2 WSW 6 7 3 4 - - 0.0
26/04:30am 1.3 -1.7 0.7 96 0.2 WSW 6 7 3 4 - - 0.0
26/04:00am 1.9 -1.0 1.3 96 0.2 WSW 6 9 3 5 - - 0.0
26/03:30am 2.3 -0.7 1.7 96 0.2 WSW 7 9 4 5 - - 0.0
26/03:00am 2.1 -0.4 1.5 96 0.2 W 4 6 2 3 - - 0.0
26/02:30am 1.0 -1.7 0.3 95 0.3 NW 4 6 2 3 - - 0.0
26/02:00am 1.3 -1.4 0.4 94 0.3 WSW 4 6 2 3 - - 0.0
26/01:30am 3.2 0.2 2.3 94 0.4 WSW 7 7 4 4 - - 0.0
26/01:00am 4.1 1.9 3.2 94 0.4 WSW 4 7 2 4 - - 0.0
26/12:30am 4.2 1.6 3.2 93 0.4 WSW 6 9 3 5 - - 0.0
26/12:00am 3.9 2.0 2.9 93 0.4 W 2 2 1 1 - - 0.0
 
Date/Time
EST
Temp
°C
App
Temp
°C
Dew
Point
°C
Rel
Hum
%
Delta-T
°C
Wind Press
QNH
hPa
Press
MSL
hPa
Rain since
9am
mm
Dir  Spd
km/h
Gust
km/h
Spd
kts
Gust
kts
25/11:30pm 4.0 1.7 2.7 91 0.5 WSW 4 6 2 3 - - 0.0
25/11:00pm 4.9 2.7 3.6 91 0.5 SW 4 7 2 4 - - 0.0
25/10:30pm 5.3 2.3 4.0 91 0.6 SW 9 11 5 6 - - 0.0
25/10:00pm 5.1 2.0 3.6 90 0.6 SW 9 11 5 6 - - 0.0
25/09:30pm 5.2 1.7 3.5 89 0.7 SW 11 13 6 7 - - 0.0
25/09:00pm 5.3 2.2 3.5 88 0.8 SW 9 11 5 6 - - 0.0
25/08:30pm 6.0 3.4 4.2 88 0.8 SSW 7 9 4 5 - - 0.0
25/08:00pm 5.4 2.9 3.6 88 0.8 SSW 6 7 3 4 - - 0.0
25/07:30pm 6.3 3.9 4.3 87 0.9 SSW 6 6 3 3 - - 0.0
25/07:00pm 6.7 4.1 4.2 84 1.1 S 7 9 4 5 - - 0.0
25/06:30pm 7.3 4.3 4.1 80 1.4 SSW 9 11 5 6 - - 0.0
25/06:00pm 9.3 6.4 4.9 74 2.0 SW 9 13 5 7 - - 0.0
25/05:30pm 10.5 6.5 5.1 69 2.5 SSW 15 22 8 12 - - 0.0
25/05:00pm 11.5 8.2 4.5 62 3.2 SW 11 17 6 9 - - 0.0
25/04:30pm 11.9 8.0 3.2 55 3.9 SW 13 19 7 10 - - 0.0
25/04:00pm 13.4 9.4 2.9 49 4.7 WSW 13 20 7 11 - - 0.0
25/03:30pm 13.0 8.6 2.6 49 4.6 SW 15 20 8 11 - - 0.0
25/03:00pm 13.0 8.7 3.4 52 4.3 SW 15 20 8 11 - - 0.0
25/02:30pm 12.2 7.4 2.6 52 4.2 SW 17 24 9 13 - - 0.0
25/02:00pm 12.7 8.1 3.6 54 4.1 SW 17 28 9 15 - - 0.0
25/01:30pm 11.2 8.0 5.3 67 2.7 SW 11 17 6 9 - - 0.0
25/01:00pm 12.2 8.6 6.7 69 2.6 SW 15 20 8 11 - - 0.0
25/12:30pm 10.7 6.3 5.0 68 2.6 SSW 17 24 9 13 - - 0.0
25/12:00pm 11.1 6.7 6.5 73 2.2 SSW 19 24 10 13 - - 0.0
25/11:30am 10.3 5.8 6.1 75 2.0 SW 19 28 10 15 - - 0.0
25/11:00am 9.5 5.4 6.4 81 1.4 SW 17 22 9 12 - - 0.0
25/10:30am 8.4 4.9 7.2 92 0.6 WSW 15 20 8 11 - - 0.0
25/10:00am 6.9 4.0 6.3 96 0.3 SW 11 20 6 11 - - 0.0
25/09:30am 6.2 3.6 5.9 98 0.1 SW 9 15 5 8 - - 0.0
25/09:00am 5.1 2.8 4.8 98 0.1 SSE 6 11 3 6 - - 0.0
25/08:30am 4.4 3.1 4.1 98 0.1 CALM 0 0 0 0 - - 0.0
25/08:00am 2.5 0.9 2.2 98 0.1 CALM 0 0 0 0 - - 0.0
25/07:30am 0.6 -1.4 0.2 97 0.1 CALM 0 0 0 0 - - 0.0
25/07:00am 1.1 -0.8 0.7 97 0.1 CALM 0 0 0 0 - - 0.0
25/06:30am 1.7 -0.8 1.3 97 0.2 WSW 4 7 2 4 - - 0.0
25/06:00am 1.0 -2.0 0.6 97 0.1 WSW 6 6 3 3 - - 0.0
25/05:30am 1.3 -1.7 0.9 97 0.2 WSW 6 6 3 3 - - 0.0
25/05:00am 1.2 -1.8 0.8 97 0.1 WSW 6 6 3 3 - - 0.0
25/04:30am 0.5 -2.8 0.1 97 0.1 WSW 7 7 4 4 - - 0.0
25/04:00am 0.1 -2.7 -0.5 96 0.2 WSW 4 6 2 3 - - 0.0
25/03:30am 0.1 -2.3 -0.5 96 0.2 WSW 2 4 1 2 - - 0.0
25/03:00am 0.8 -2.3 0.2 96 0.2 SW 6 7 3 4 - - 0.0
25/02:30am 1.5 -1.7 0.9 96 0.2 SW 7 9 4 5 - - 0.0
25/02:00am 1.6 -1.6 1.0 96 0.2 SW 7 7 4 4 - - 0.0
25/01:30am 2.4 -0.1 1.8 96 0.2 SSW 4 6 2 3 - - 0.0
25/01:00am 1.6 -1.6 0.9 95 0.3 SW 7 9 4 5 - - 0.0
25/12:30am 2.4 -0.6 1.7 95 0.3 SSW 7 9 4 5 - - 0.0
25/12:00am 2.6 -0.3 1.7 94 0.4 SSW 6 7 3 4 - - 0.0
 
Date/Time
EST
Temp
°C
App
Temp
°C
Dew
Point
°C
Rel
Hum
%
Delta-T
°C
Wind Press
QNH
hPa
Press
MSL
hPa
Rain since
9am
mm
Dir  Spd
km/h
Gust
km/h
Spd
kts
Gust
kts
24/11:30pm 3.2 0.2 2.3 94 0.4 SSW 7 9 4 5 - - 0.0
24/11:00pm 3.4 0.1 2.5 94 0.4 SSW 9 11 5 6 - - 0.0
24/10:30pm 3.6 0.3 2.6 93 0.4 SW 9 11 5 6 - - 0.0
24/10:00pm 4.0 1.2 3.0 93 0.4 SW 7 9 4 5 - - 0.0
24/09:30pm 4.8 2.1 3.5 91 0.5 SSW 7 7 4 4 - - 0.0
24/09:00pm 5.6 2.5 3.8 88 0.8 S 9 11 5 6 - - 0.0
24/08:30pm 7.0 3.0 4.7 85 1.0 S 15 19 8 10 - - 0.0
24/08:00pm 6.5 3.2 4.8 89 0.7 S 11 17 6 9 - - 0.0
24/07:30pm 5.6 2.0 3.1 84 1.0 SSW 11 13 6 7 - - 0.0
24/07:00pm 6.1 2.5 3.1 81 1.3 SSW 11 13 6 7 - - 0.0
24/06:30pm 8.3 4.5 3.8 73 2.0 S 13 19 7 10 - - 0.0
24/06:00pm 9.2 6.3 4.4 72 2.1 S 9 13 5 7 - - 0.0
24/05:30pm 10.8 7.5 4.3 64 2.9 SW 11 17 6 9 - - 0.0
24/05:00pm 11.8 7.9 3.3 56 3.8 SW 13 19 7 10 - - 0.0
24/04:30pm 11.7 8.0 2.5 53 4.0 SW 11 15 6 8 - - 0.0
24/04:00pm 12.3 9.2 3.8 56 3.8 WSW 9 11 5 6 - - 0.0
24/03:30pm 10.8 8.3 4.5 65 2.8 SSW 7 11 4 6 - - 0.0
24/03:00pm 11.4 8.2 3.2 57 3.6 S 9 11 5 6 - - 0.0
24/02:30pm 11.7 8.6 3.5 57 3.7 SSW 9 15 5 8 - - 0.0
24/02:00pm 12.5 9.8 3.7 55 4.0 SSW 7 11 4 6 - - 0.0
24/01:30pm 12.6 9.3 4.6 58 3.7 WSW 11 15 6 8 - - 0.0
24/01:00pm 11.8 8.7 3.8 58 3.6 SSW 9 15 5 8 - - 0.0
24/12:30pm 11.7 8.3 4.2 60 3.4 S 11 15 6 8 - - 0.0
24/12:00pm 11.8 8.5 4.5 61 3.3 SSE 11 17 6 9 - - 0.0
24/11:30am 11.6 8.3 4.6 62 3.2 SE 11 17 6 9 - - 0.0
24/11:00am 11.1 7.1 5.0 66 2.8 ESE 15 20 8 11 - - 0.0
24/10:30am 10.2 6.4 5.6 73 2.1 SE 15 19 8 10 - - 0.0
24/10:00am 9.4 4.8 5.8 78 1.7 SE 19 22 10 12 - - 0.0
24/09:30am 8.7 4.6 6.0 83 1.2 SE 17 24 9 13 - - 0.0
24/09:00am 6.8 2.8 5.1 89 0.8 SE 15 19 8 10 - - 0.0
24/08:30am 6.0 1.9 4.6 91 0.6 SE 15 19 8 10 - - 0.0
24/08:00am 4.0 0.5 3.3 95 0.3 SE 11 17 6 9 - - 0.0
24/07:30am 2.3 -0.8 1.6 95 0.3 ESE 7 9 4 5 - - 0.0
24/07:00am 1.9 -1.0 1.2 95 0.3 SE 6 9 3 5 - - 0.0
24/06:30am 0.8 -2.5 -0.1 94 0.3 SSE 7 9 4 5 - - 0.0
24/06:00am 0.9 -2.2 -0.1 93 0.4 SSE 6 9 3 5 - - 0.0
24/05:30am 0.3 -2.9 -0.8 92 0.4 S 6 7 3 4 - - 0.0
24/05:00am 1.4 -1.4 -0.1 90 0.5 SSE 4 6 2 3 - - 0.0
24/04:30am 2.8 -0.3 1.3 90 0.6 SE 7 9 4 5 - - 0.0
24/04:00am 2.9 -0.6 1.4 90 0.6 SE 9 11 5 6 - - 0.0
24/03:30am 2.5 -1.8 1.0 90 0.6 SE 13 15 7 8 - - 0.0
24/03:00am 3.0 -0.9 1.4 89 0.6 SE 11 13 6 7 - - 0.0
24/02:30am 3.7 0.0 2.1 89 0.6 SE 11 15 6 8 - - 0.0
24/02:00am 3.4 -0.4 1.9 90 0.6 ESE 11 15 6 8 - - 0.0
24/01:30am 3.3 -0.9 1.8 90 0.6 SE 13 17 7 9 - - 0.0
24/01:00am 3.7 0.3 1.9 88 0.7 ESE 9 11 5 6 - - 0.0
24/12:30am 4.2 0.5 2.2 87 0.8 ESE 11 15 6 8 - - 0.0
24/12:00am 4.4 0.4 2.6 88 0.7 ESE 13 17 7 9 - - 0.0
 
Date/Time
EST
Temp
°C
App
Temp
°C
Dew
Point
°C
Rel
Hum
%
Delta-T
°C
Wind Press
QNH
hPa
Press
MSL
hPa
Rain since
9am
mm
Dir  Spd
km/h
Gust
km/h
Spd
kts
Gust
kts
23/11:30pm 4.5 0.1 2.5 87 0.8 ESE 15 17 8 9 - - 0.0
23/11:00pm 4.3 0.2 2.2 86 0.8 ESE 13 15 7 8 - - 0.0
23/10:30pm 5.2 1.5 2.2 81 1.2 ESE 11 13 6 7 - - 0.0
23/10:00pm 5.3 2.6 2.7 83 1.1 E 6 9 3 5 - - 0.0
23/09:30pm 5.5 1.9 2.8 83 1.1 ESE 11 13 6 7 - - 0.0
23/09:00pm 5.9 1.9 3.1 82 1.2 SE 13 17 7 9 - - 0.0
23/08:30pm 6.2 2.7 3.4 82 1.2 SE 11 17 6 9 - - 0.0
23/08:00pm 6.9 3.1 3.9 81 1.3 SE 13 17 7 9 - - 0.0
23/07:30pm 7.1 4.6 4.6 84 1.1 SSE 7 11 4 6 - - 0.0
23/07:00pm 7.7 5.8 4.7 81 1.3 SSE 4 6 2 3 - - 0.0

Other Formats:

Comma delimited format used in spreadsheet applications
http://www.bom.gov.au/fwo/IDV60801/IDV60801.95835.axf

JavaScript Object Notation format (JSON) in row-major order
http://www.bom.gov.au/fwo/IDV60801/IDV60801.95835.json